MBU9AW EDDN-EDDH
Flight info
| Callsign | MBU9AW |
|---|---|
| Flight time | 0h 52m |
| Altitude | 33000 |
| Route | SULUS1G SULUS L604 MASEK DCT ELNAT/N0436F340 P605 NOLGO NOLGO3P |
| Aircraft | A320/M-SDE3FGHIRWY/LB1 |
Departure
| Time | 2026-04-23 20:01 |
|---|---|
| Airport | Nuremberg Airport (EDDN) |
Arrival
| Time | 2026-04-23 20:53 |
|---|---|
| Airport | Hamburg Helmut Schmidt Airport (EDDH) |
| Time | Latitude | Longitude | Altitude | Speed | Heading |
|---|---|---|---|---|---|
| 2026-04-23 18:58 | 49.49513 | 11.07790 | 1035 ft | 0 kts | 188° |
| 2026-04-23 19:51 | 49.49518 | 11.07792 | 1035 ft | 2 kts | 185° |
| 2026-04-23 19:51 | 49.49535 | 11.07795 | 1035 ft | 2 kts | 191° |
| 2026-04-23 19:51 | 49.49551 | 11.07797 | 1036 ft | 2 kts | 168° |
| 2026-04-23 19:52 | 49.49567 | 11.07793 | 1036 ft | 2 kts | 169° |
| 2026-04-23 19:52 | 49.49583 | 11.07787 | 1037 ft | 2 kts | 165° |
| 2026-04-23 19:52 | 49.49599 | 11.07781 | 1038 ft | 2 kts | 168° |
| 2026-04-23 19:52 | 49.49615 | 11.07775 | 1039 ft | 2 kts | 168° |
| 2026-04-23 19:53 | 49.49631 | 11.07771 | 1040 ft | 2 kts | 173° |
| 2026-04-23 19:53 | 49.49639 | 11.07769 | 1040 ft | 0 kts | 185° |
| 2026-04-23 19:54 | 49.49633 | 11.07768 | 1040 ft | 3 kts | 185° |
| 2026-04-23 19:55 | 49.49601 | 11.07775 | 1038 ft | 7 kts | 148° |
| 2026-04-23 19:55 | 49.49580 | 11.07840 | 1037 ft | 7 kts | 103° |
| 2026-04-23 19:55 | 49.49573 | 11.07901 | 1038 ft | 5 kts | 98° |
| 2026-04-23 19:55 | 49.49566 | 11.07973 | 1037 ft | 12 kts | 98° |
| 2026-04-23 19:56 | 49.49553 | 11.08099 | 1037 ft | 5 kts | 98° |
| 2026-04-23 19:56 | 49.49549 | 11.08149 | 1037 ft | 4 kts | 99° |
| 2026-04-23 19:56 | 49.49538 | 11.08261 | 1039 ft | 7 kts | 98° |
| 2026-04-23 19:56 | 49.49546 | 11.08340 | 1041 ft | 15 kts | 54° |
| 2026-04-23 19:57 | 49.49589 | 11.08369 | 1042 ft | 0 kts | 17° |
| 2026-04-23 19:57 | 49.49614 | 11.08402 | 1042 ft | 7 kts | 57° |
| 2026-04-23 19:57 | 49.49614 | 11.08443 | 1043 ft | 7 kts | 102° |
| 2026-04-23 19:57 | 49.49602 | 11.08576 | 1045 ft | 8 kts | 97° |
| 2026-04-23 19:58 | 49.49594 | 11.08654 | 1045 ft | 6 kts | 100° |
| 2026-04-23 19:58 | 49.49586 | 11.08737 | 1046 ft | 10 kts | 98° |
| 2026-04-23 19:58 | 49.49577 | 11.08828 | 1048 ft | 11 kts | 98° |
| 2026-04-23 19:58 | 49.49562 | 11.08982 | 1049 ft | 12 kts | 98° |
| 2026-04-23 19:59 | 49.49550 | 11.09107 | 1050 ft | 11 kts | 98° |
| 2026-04-23 19:59 | 49.49541 | 11.09210 | 1051 ft | 8 kts | 98° |
| 2026-04-23 19:59 | 49.49528 | 11.09335 | 1054 ft | 20 kts | 97° |
| 2026-04-23 19:59 | 49.49589 | 11.09473 | 1055 ft | 14 kts | 53° |
| 2026-04-23 20:00 | 49.49646 | 11.09569 | 1059 ft | 10 kts | 20° |
| 2026-04-23 20:00 | 49.49693 | 11.09552 | 1059 ft | 6 kts | 301° |
| 2026-04-23 20:00 | 49.49705 | 11.09493 | 1058 ft | 0 kts | 278° |
| 2026-04-23 20:00 | 49.49732 | 11.09223 | 1058 ft | 65 kts | 278° |
| 2026-04-23 20:01 | 49.49835 | 11.08172 | 1043 ft | 132 kts | 278° |
| 2026-04-23 20:01 | 49.49989 | 11.06618 | 1464 ft | 144 kts | 279° |
| 2026-04-23 20:01 | 49.50138 | 11.05087 | 2185 ft | 145 kts | 284° |
| 2026-04-23 20:01 | 49.50289 | 11.03545 | 2878 ft | 148 kts | 285° |
| 2026-04-23 20:02 | 49.50458 | 11.01874 | 3310 ft | 169 kts | 284° |
| 2026-04-23 20:02 | 49.50652 | 10.99964 | 3691 ft | 193 kts | 283° |
| 2026-04-23 20:02 | 49.50871 | 10.97791 | 4115 ft | 217 kts | 282° |
| 2026-04-23 20:02 | 49.51124 | 10.95366 | 4620 ft | 241 kts | 286° |
| 2026-04-23 20:03 | 49.51927 | 10.93077 | 5193 ft | 252 kts | 318° |
| 2026-04-23 20:03 | 49.53472 | 10.91898 | 5569 ft | 252 kts | 349° |
| 2026-04-23 20:03 | 49.55236 | 10.91733 | 5991 ft | 258 kts | 1° |
| 2026-04-23 20:03 | 49.57042 | 10.91941 | 7001 ft | 260 kts | 4° |
| 2026-04-23 20:04 | 49.58847 | 10.92208 | 7964 ft | 262 kts | 4° |
| 2026-04-23 20:04 | 49.60679 | 10.92441 | 8910 ft | 266 kts | 3° |
| 2026-04-23 20:04 | 49.61909 | 10.92564 | 9534 ft | 269 kts | 3° |
| 2026-04-23 20:04 | 49.63791 | 10.92705 | 10435 ft | 273 kts | 2° |
| 2026-04-23 20:05 | 49.65774 | 10.92808 | 10829 ft | 296 kts | 1° |
| 2026-04-23 20:05 | 49.68613 | 10.92905 | 11521 ft | 315 kts | 0° |
| 2026-04-23 20:05 | 49.70815 | 10.92540 | 12296 ft | 322 kts | 347° |
| 2026-04-23 20:05 | 49.72243 | 10.91859 | 12828 ft | 325 kts | 342° |
| 2026-04-23 20:06 | 49.74401 | 10.90697 | 13653 ft | 330 kts | 342° |
| 2026-04-23 20:06 | 49.76583 | 10.89528 | 14414 ft | 334 kts | 342° |
| 2026-04-23 20:06 | 49.78798 | 10.88342 | 14997 ft | 343 kts | 342° |
| 2026-04-23 20:06 | 49.81117 | 10.87104 | 15300 ft | 359 kts | 342° |
| 2026-04-23 20:07 | 49.83499 | 10.85827 | 15896 ft | 365 kts | 342° |
| 2026-04-23 20:07 | 49.85915 | 10.84533 | 16557 ft | 369 kts | 342° |
| 2026-04-23 20:07 | 49.88359 | 10.83226 | 17219 ft | 373 kts | 343° |
| 2026-04-23 20:07 | 49.90827 | 10.81904 | 17886 ft | 377 kts | 343° |
| 2026-04-23 20:08 | 49.93314 | 10.80566 | 18548 ft | 380 kts | 343° |
| 2026-04-23 20:08 | 49.95821 | 10.79214 | 19116 ft | 384 kts | 343° |
| 2026-04-23 20:08 | 49.98371 | 10.77836 | 19693 ft | 388 kts | 343° |
| 2026-04-23 20:08 | 50.00938 | 10.76451 | 20260 ft | 392 kts | 343° |
| 2026-04-23 20:09 | 50.03497 | 10.75069 | 20811 ft | 395 kts | 343° |
| 2026-04-23 20:09 | 50.06063 | 10.73421 | 21354 ft | 402 kts | 335° |
| 2026-04-23 20:09 | 50.08436 | 10.71046 | 21874 ft | 410 kts | 324° |
| 2026-04-23 20:09 | 50.10536 | 10.67987 | 22381 ft | 417 kts | 316° |
| 2026-04-23 20:10 | 50.12535 | 10.64694 | 22886 ft | 420 kts | 316° |
| 2026-04-23 20:10 | 50.14557 | 10.61363 | 23364 ft | 424 kts | 316° |
| 2026-04-23 20:10 | 50.16576 | 10.58043 | 23830 ft | 427 kts | 316° |
| 2026-04-23 20:10 | 50.18642 | 10.54653 | 24217 ft | 431 kts | 316° |
| 2026-04-23 20:11 | 50.20717 | 10.51241 | 24605 ft | 433 kts | 316° |
| 2026-04-23 20:11 | 50.22805 | 10.47806 | 24984 ft | 436 kts | 316° |
| 2026-04-23 20:11 | 50.24917 | 10.44372 | 25361 ft | 439 kts | 317° |
| 2026-04-23 20:11 | 50.27026 | 10.40987 | 25727 ft | 441 kts | 317° |
| 2026-04-23 20:12 | 50.29178 | 10.37547 | 26093 ft | 444 kts | 317° |
| 2026-04-23 20:12 | 50.31341 | 10.34085 | 26452 ft | 446 kts | 317° |
| 2026-04-23 20:12 | 50.33517 | 10.30589 | 26806 ft | 449 kts | 317° |
| 2026-04-23 20:12 | 50.35686 | 10.27053 | 27155 ft | 452 kts | 315° |
| 2026-04-23 20:13 | 50.37787 | 10.23357 | 27478 ft | 455 kts | 314° |
| 2026-04-23 20:13 | 50.39888 | 10.19626 | 27811 ft | 457 kts | 314° |
| 2026-04-23 20:13 | 50.42043 | 10.15937 | 28136 ft | 459 kts | 315° |
| 2026-04-23 20:13 | 50.44253 | 10.12283 | 28443 ft | 461 kts | 316° |
| 2026-04-23 20:14 | 50.46467 | 10.08623 | 28734 ft | 463 kts | 316° |
| 2026-04-23 20:14 | 50.48682 | 10.04922 | 29018 ft | 466 kts | 315° |
| 2026-04-23 20:14 | 50.50889 | 10.01182 | 29292 ft | 468 kts | 315° |
| 2026-04-23 20:14 | 50.53091 | 9.97406 | 29549 ft | 470 kts | 314° |
| 2026-04-23 20:15 | 50.55289 | 9.93578 | 29787 ft | 472 kts | 313° |
| 2026-04-23 20:15 | 50.57400 | 9.89707 | 30090 ft | 472 kts | 312° |
| 2026-04-23 20:15 | 50.59513 | 9.85670 | 30420 ft | 472 kts | 311° |
| 2026-04-23 20:15 | 50.61548 | 9.81701 | 30707 ft | 471 kts | 311° |
| 2026-04-23 20:16 | 50.63627 | 9.77629 | 30989 ft | 471 kts | 311° |
| 2026-04-23 20:16 | 50.65690 | 9.73619 | 31273 ft | 470 kts | 311° |
| 2026-04-23 20:16 | 50.67807 | 9.69697 | 31559 ft | 468 kts | 317° |
| 2026-04-23 20:16 | 50.70251 | 9.66438 | 31841 ft | 464 kts | 328° |
| 2026-04-23 20:17 | 50.73054 | 9.63950 | 32116 ft | 460 kts | 339° |
| 2026-04-23 20:17 | 50.76069 | 9.62309 | 32395 ft | 457 kts | 349° |
| 2026-04-23 20:17 | 50.79192 | 9.61537 | 32685 ft | 453 kts | 359° |
| 2026-04-23 20:17 | 50.82328 | 9.61654 | 32983 ft | 449 kts | 8° |
| 2026-04-23 20:18 | 50.85429 | 9.62250 | 33282 ft | 449 kts | 9° |
| 2026-04-23 20:18 | 50.88527 | 9.62850 | 33589 ft | 448 kts | 9° |
| 2026-04-23 20:18 | 50.91613 | 9.63452 | 33899 ft | 447 kts | 9° |
| 2026-04-23 20:18 | 50.94699 | 9.64056 | 34196 ft | 446 kts | 9° |
| 2026-04-23 20:19 | 50.97780 | 9.64659 | 34266 ft | 446 kts | 9° |
| 2026-04-23 20:19 | 51.03933 | 9.65863 | 34272 ft | 444 kts | 9° |
| 2026-04-23 20:20 | 51.10064 | 9.67070 | 34275 ft | 444 kts | 9° |
| 2026-04-23 20:20 | 51.16209 | 9.68274 | 34276 ft | 443 kts | 8° |
| 2026-04-23 20:21 | 51.22295 | 9.69454 | 34269 ft | 443 kts | 8° |
| 2026-04-23 20:21 | 51.28434 | 9.70477 | 34269 ft | 443 kts | 7° |
| 2026-04-23 20:22 | 51.34583 | 9.71407 | 34269 ft | 443 kts | 7° |
| 2026-04-23 20:22 | 51.40727 | 9.72373 | 34266 ft | 443 kts | 7° |
| 2026-04-23 20:23 | 51.46857 | 9.73438 | 34264 ft | 442 kts | 8° |
| 2026-04-23 20:23 | 51.52966 | 9.74724 | 34265 ft | 442 kts | 8° |
| 2026-04-23 20:24 | 51.59072 | 9.76011 | 34265 ft | 442 kts | 8° |
| 2026-04-23 20:24 | 51.65144 | 9.77251 | 34261 ft | 442 kts | 8° |
| 2026-04-23 20:25 | 51.71251 | 9.78468 | 34261 ft | 442 kts | 8° |
| 2026-04-23 20:25 | 51.77357 | 9.79690 | 34260 ft | 442 kts | 8° |
| 2026-04-23 20:26 | 51.83452 | 9.80930 | 34257 ft | 441 kts | 8° |
| 2026-04-23 20:26 | 51.89549 | 9.82175 | 34264 ft | 441 kts | 7° |
| 2026-04-23 20:27 | 51.95652 | 9.83411 | 34256 ft | 441 kts | 7° |
| 2026-04-23 20:27 | 51.98699 | 9.84030 | 33843 ft | 440 kts | 7° |
| 2026-04-23 20:27 | 52.01739 | 9.84649 | 32891 ft | 441 kts | 7° |
| 2026-04-23 20:27 | 52.04799 | 9.85272 | 31895 ft | 443 kts | 7° |
| 2026-04-23 20:28 | 52.07869 | 9.85903 | 30906 ft | 446 kts | 8° |
| 2026-04-23 20:28 | 52.10916 | 9.86533 | 29837 ft | 448 kts | 8° |
| 2026-04-23 20:28 | 52.14060 | 9.87183 | 28640 ft | 450 kts | 7° |
| 2026-04-23 20:28 | 52.17139 | 9.87823 | 27440 ft | 452 kts | 7° |
| 2026-04-23 20:29 | 52.20266 | 9.88474 | 26403 ft | 452 kts | 7° |
| 2026-04-23 20:29 | 52.23361 | 9.89114 | 25677 ft | 446 kts | 7° |
| 2026-04-23 20:29 | 52.26443 | 9.89754 | 25393 ft | 445 kts | 7° |
| 2026-04-23 20:29 | 52.29514 | 9.90387 | 25249 ft | 444 kts | 7° |
| 2026-04-23 20:30 | 52.32549 | 9.91009 | 25288 ft | 428 kts | 7° |
| 2026-04-23 20:30 | 52.38165 | 9.92168 | 25292 ft | 387 kts | 7° |
| 2026-04-23 20:30 | 52.40784 | 9.92719 | 25294 ft | 370 kts | 7° |
| 2026-04-23 20:31 | 52.43299 | 9.93248 | 25291 ft | 357 kts | 7° |
| 2026-04-23 20:31 | 52.45736 | 9.93758 | 25274 ft | 353 kts | 7° |
| 2026-04-23 20:31 | 52.48164 | 9.94269 | 25008 ft | 349 kts | 7° |
| 2026-04-23 20:31 | 52.50565 | 9.94772 | 24583 ft | 347 kts | 6° |
| 2026-04-23 20:32 | 52.52952 | 9.95269 | 24163 ft | 344 kts | 6° |
| 2026-04-23 20:32 | 52.55318 | 9.95763 | 23732 ft | 342 kts | 6° |
| 2026-04-23 20:32 | 52.57675 | 9.96259 | 23304 ft | 340 kts | 6° |
| 2026-04-23 20:32 | 52.60019 | 9.96755 | 22903 ft | 339 kts | 6° |
| 2026-04-23 20:33 | 52.62350 | 9.97252 | 22482 ft | 337 kts | 6° |
| 2026-04-23 20:33 | 52.64644 | 9.97737 | 22045 ft | 335 kts | 6° |
| 2026-04-23 20:33 | 52.66947 | 9.98222 | 21612 ft | 333 kts | 6° |
| 2026-04-23 20:33 | 52.69237 | 9.98702 | 21179 ft | 331 kts | 6° |
| 2026-04-23 20:34 | 52.71513 | 9.99179 | 20756 ft | 329 kts | 6° |
| 2026-04-23 20:34 | 52.73781 | 9.99655 | 20337 ft | 327 kts | 6° |
| 2026-04-23 20:34 | 52.76040 | 10.00130 | 19924 ft | 328 kts | 6° |
| 2026-04-23 20:34 | 52.78326 | 10.00615 | 19501 ft | 332 kts | 6° |
| 2026-04-23 20:35 | 52.80629 | 10.01106 | 19098 ft | 332 kts | 6° |
| 2026-04-23 20:35 | 52.82921 | 10.01594 | 18742 ft | 330 kts | 6° |
| 2026-04-23 20:35 | 52.85200 | 10.02075 | 18373 ft | 329 kts | 6° |
| 2026-04-23 20:35 | 52.87464 | 10.02557 | 17977 ft | 327 kts | 6° |
| 2026-04-23 20:36 | 52.89713 | 10.03042 | 17582 ft | 325 kts | 6° |
| 2026-04-23 20:36 | 52.91949 | 10.03527 | 17197 ft | 323 kts | 6° |
| 2026-04-23 20:36 | 52.94144 | 10.04001 | 16818 ft | 321 kts | 6° |
| 2026-04-23 20:36 | 52.96350 | 10.04476 | 16441 ft | 318 kts | 6° |
| 2026-04-23 20:37 | 52.98538 | 10.04946 | 16072 ft | 316 kts | 6° |
| 2026-04-23 20:37 | 53.00712 | 10.05412 | 15713 ft | 314 kts | 6° |
| 2026-04-23 20:37 | 53.02874 | 10.05876 | 15432 ft | 312 kts | 6° |
| 2026-04-23 20:37 | 53.05021 | 10.06335 | 15141 ft | 310 kts | 6° |
| 2026-04-23 20:38 | 53.07160 | 10.06792 | 14855 ft | 308 kts | 6° |
| 2026-04-23 20:38 | 53.09287 | 10.07245 | 14540 ft | 307 kts | 6° |
| 2026-04-23 20:38 | 53.11402 | 10.07693 | 14188 ft | 305 kts | 6° |
| 2026-04-23 20:38 | 53.13502 | 10.08143 | 13835 ft | 303 kts | 6° |
| 2026-04-23 20:39 | 53.15585 | 10.08591 | 13573 ft | 301 kts | 6° |
| 2026-04-23 20:39 | 53.17657 | 10.09041 | 13320 ft | 299 kts | 6° |
| 2026-04-23 20:39 | 53.19721 | 10.09547 | 13052 ft | 298 kts | 11° |
| 2026-04-23 20:39 | 53.21739 | 10.10347 | 12797 ft | 297 kts | 12° |
| 2026-04-23 20:40 | 53.23740 | 10.11208 | 12543 ft | 296 kts | 13° |
| 2026-04-23 20:40 | 53.25702 | 10.12075 | 12293 ft | 294 kts | 13° |
| 2026-04-23 20:40 | 53.27680 | 10.12954 | 12045 ft | 293 kts | 13° |
| 2026-04-23 20:40 | 53.29641 | 10.13827 | 11713 ft | 290 kts | 13° |
| 2026-04-23 20:41 | 53.31583 | 10.14691 | 11332 ft | 288 kts | 12° |
| 2026-04-23 20:41 | 53.33513 | 10.15542 | 10954 ft | 285 kts | 12° |
| 2026-04-23 20:41 | 53.35431 | 10.16380 | 10582 ft | 283 kts | 12° |
| 2026-04-23 20:41 | 53.37330 | 10.17210 | 10225 ft | 281 kts | 12° |
| 2026-04-23 20:42 | 53.38576 | 10.17755 | 9959 ft | 279 kts | 12° |
| 2026-04-23 20:42 | 53.41012 | 10.18823 | 9673 ft | 267 kts | 12° |
| 2026-04-23 20:42 | 53.42799 | 10.19609 | 9297 ft | 264 kts | 12° |
| 2026-04-23 20:42 | 53.44571 | 10.20389 | 8909 ft | 262 kts | 12° |
| 2026-04-23 20:43 | 53.45762 | 10.20914 | 8645 ft | 261 kts | 12° |
| 2026-04-23 20:43 | 53.47489 | 10.21674 | 8259 ft | 259 kts | 12° |
| 2026-04-23 20:43 | 53.49229 | 10.22436 | 7859 ft | 257 kts | 11° |
| 2026-04-23 20:43 | 53.50956 | 10.23193 | 7472 ft | 255 kts | 11° |
| 2026-04-23 20:44 | 53.52670 | 10.23949 | 7051 ft | 253 kts | 11° |
| 2026-04-23 20:44 | 53.54369 | 10.24702 | 6659 ft | 252 kts | 11° |
| 2026-04-23 20:44 | 53.56060 | 10.25453 | 6242 ft | 250 kts | 11° |
| 2026-04-23 20:44 | 53.57737 | 10.26202 | 5826 ft | 248 kts | 11° |
| 2026-04-23 20:45 | 53.59383 | 10.26936 | 5418 ft | 246 kts | 11° |
| 2026-04-23 20:45 | 53.61057 | 10.27677 | 5033 ft | 244 kts | 11° |
| 2026-04-23 20:45 | 53.62686 | 10.28397 | 4781 ft | 246 kts | 11° |
| 2026-04-23 20:45 | 53.64339 | 10.29128 | 4525 ft | 245 kts | 11° |
| 2026-04-23 20:46 | 53.65982 | 10.29857 | 4268 ft | 241 kts | 11° |
| 2026-04-23 20:46 | 53.67573 | 10.30567 | 4061 ft | 230 kts | 11° |
| 2026-04-23 20:46 | 53.69070 | 10.31238 | 4001 ft | 215 kts | 11° |
| 2026-04-23 20:46 | 53.70508 | 10.31878 | 4002 ft | 213 kts | 11° |
| 2026-04-23 20:47 | 53.71928 | 10.32507 | 3996 ft | 204 kts | 11° |
| 2026-04-23 20:47 | 53.73259 | 10.33099 | 3860 ft | 194 kts | 11° |
| 2026-04-23 20:47 | 53.74542 | 10.33667 | 3609 ft | 192 kts | 10° |
| 2026-04-23 20:47 | 53.75835 | 10.34082 | 3356 ft | 186 kts | 353° |
| 2026-04-23 20:48 | 53.76986 | 10.33271 | 3107 ft | 182 kts | 318° |
| 2026-04-23 20:48 | 53.77692 | 10.31559 | 2991 ft | 178 kts | 289° |
| 2026-04-23 20:48 | 53.77715 | 10.29508 | 3026 ft | 176 kts | 264° |
| 2026-04-23 20:48 | 53.77170 | 10.27618 | 3010 ft | 185 kts | 239° |
| 2026-04-23 20:49 | 53.76348 | 10.25937 | 2998 ft | 185 kts | 238° |
| 2026-04-23 20:49 | 53.75525 | 10.24261 | 2996 ft | 183 kts | 238° |
| 2026-04-23 20:49 | 53.74724 | 10.22625 | 2995 ft | 181 kts | 238° |
| 2026-04-23 20:49 | 53.73919 | 10.20980 | 2996 ft | 182 kts | 238° |
| 2026-04-23 20:50 | 53.73109 | 10.19323 | 2961 ft | 183 kts | 239° |
| 2026-04-23 20:50 | 53.72293 | 10.17656 | 2792 ft | 183 kts | 238° |
| 2026-04-23 20:50 | 53.71480 | 10.15998 | 2564 ft | 182 kts | 238° |
| 2026-04-23 20:50 | 53.70679 | 10.14365 | 2314 ft | 179 kts | 239° |
| 2026-04-23 20:51 | 53.69900 | 10.12777 | 2081 ft | 177 kts | 239° |
| 2026-04-23 20:51 | 53.69113 | 10.11174 | 1832 ft | 177 kts | 239° |
| 2026-04-23 20:51 | 53.68327 | 10.09570 | 1612 ft | 179 kts | 238° |
| 2026-04-23 20:51 | 53.67533 | 10.07955 | 1345 ft | 178 kts | 238° |
| 2026-04-23 20:52 | 53.66748 | 10.06361 | 1089 ft | 175 kts | 237° |
| 2026-04-23 20:52 | 53.65970 | 10.04781 | 836 ft | 173 kts | 236° |
| 2026-04-23 20:52 | 53.65209 | 10.03243 | 617 ft | 170 kts | 236° |
| 2026-04-23 20:52 | 53.64469 | 10.01722 | 357 ft | 158 kts | 235° |
| 2026-04-23 20:53 | 53.63809 | 10.00394 | 157 ft | 139 kts | 235° |
| 2026-04-23 20:53 | 53.63245 | 9.99235 | 54 ft | 113 kts | 231° |
| 2026-04-23 20:53 | 53.62852 | 9.98437 | 50 ft | 65 kts | 229° |
| 2026-04-23 20:53 | 53.62675 | 9.98075 | 49 ft | 15 kts | 230° |
| 2026-04-23 20:54 | 53.62603 | 9.97938 | 48 ft | 27 kts | 228° |
| 2026-04-23 20:54 | 53.62504 | 9.97797 | 47 ft | 11 kts | 194° |
| 2026-04-23 20:54 | 53.62445 | 9.97821 | 47 ft | 7 kts | 137° |
| 2026-04-23 20:54 | 53.62433 | 9.97962 | 50 ft | 25 kts | 76° |
| 2026-04-23 20:55 | 53.62469 | 9.98098 | 50 ft | 11 kts | 57° |
| 2026-04-23 20:55 | 53.62513 | 9.98196 | 50 ft | 10 kts | 52° |
| 2026-04-23 20:55 | 53.62556 | 9.98287 | 51 ft | 10 kts | 48° |
| 2026-04-23 20:55 | 53.62599 | 9.98370 | 51 ft | 9 kts | 49° |
| 2026-04-23 20:56 | 53.62639 | 9.98450 | 51 ft | 9 kts | 51° |
| 2026-04-23 20:56 | 53.62714 | 9.98603 | 51 ft | 26 kts | 50° |
| 2026-04-23 20:56 | 53.62771 | 9.98719 | 50 ft | 9 kts | 49° |
| 2026-04-23 20:56 | 53.62810 | 9.98795 | 50 ft | 8 kts | 50° |
| 2026-04-23 20:57 | 53.62845 | 9.98867 | 50 ft | 8 kts | 50° |
| 2026-04-23 20:57 | 53.62880 | 9.98938 | 50 ft | 8 kts | 50° |
| 2026-04-23 20:57 | 53.62931 | 9.99042 | 50 ft | 16 kts | 51° |
| 2026-04-23 20:57 | 53.63006 | 9.99191 | 50 ft | 18 kts | 50° |
| 2026-04-23 20:58 | 53.63064 | 9.99315 | 50 ft | 14 kts | 56° |
| 2026-04-23 20:58 | 53.63074 | 9.99343 | 50 ft | 0 kts | 56° |
| 2026-04-23 20:59 | 53.63082 | 9.99361 | 50 ft | 7 kts | 57° |
| 2026-04-23 20:59 | 53.63133 | 9.99490 | 50 ft | 16 kts | 52° |
| 2026-04-23 20:59 | 53.63180 | 9.99590 | 49 ft | 12 kts | 51° |
| 2026-04-23 20:59 | 53.63210 | 9.99649 | 50 ft | 1 kts | 49° |
| 2026-04-23 21:00 | 53.63224 | 9.99691 | 50 ft | 14 kts | 76° |
| 2026-04-23 21:00 | 53.63157 | 9.99820 | 50 ft | 11 kts | 158° |
| 2026-04-23 21:00 | 53.63128 | 9.99923 | 51 ft | 11 kts | 67° |
| 2026-04-23 21:00 | 53.63168 | 10.00005 | 51 ft | 7 kts | 36° |
| 2026-04-23 21:01 | 53.63205 | 9.99975 | 50 ft | 2 kts | 322° |
| 2026-04-23 21:01 | 53.63211 | 9.99967 | 51 ft | 0 kts | 323° |